createdAt,value
2023-07-18T00:00:34.149Z,2.47
2023-07-18T00:03:20.733Z,2.47
2023-07-18T00:06:06.719Z,2.30
2023-07-18T00:08:52.496Z,1.98
2023-07-18T00:11:38.381Z,2.00
2023-07-18T00:14:24.449Z,1.40
2023-07-18T00:17:09.726Z,2.03
2023-07-18T00:19:55.434Z,1.60
2023-07-18T00:22:49.541Z,1.60
2023-07-18T00:25:35.357Z,1.95
2023-07-18T00:28:20.924Z,2.47
2023-07-18T00:31:06.468Z,2.08
2023-07-18T00:33:52.643Z,2.30
2023-07-18T00:36:38.648Z,2.13
2023-07-18T00:39:24.757Z,1.98
2023-07-18T00:42:10.261Z,1.67
2023-07-18T00:44:55.858Z,2.35
2023-07-18T00:47:44.782Z,2.65
2023-07-18T00:50:30.764Z,2.28
2023-07-18T00:53:16.088Z,1.98
2023-07-18T00:56:02.608Z,1.98
2023-07-18T00:58:48.274Z,2.70
2023-07-18T01:01:35.703Z,2.22
2023-07-18T01:04:22.105Z,2.40
2023-07-18T01:07:07.924Z,1.98
2023-07-18T01:09:54.857Z,3.25
2023-07-18T01:12:40.214Z,2.33
2023-07-18T01:15:31.399Z,2.92
2023-07-18T01:18:17.150Z,2.88
2023-07-18T01:21:05.667Z,2.55
2023-07-18T01:23:51.901Z,2.33
2023-07-18T01:26:37.601Z,2.53
2023-07-18T01:29:23.390Z,2.00
2023-07-18T01:32:09.034Z,2.15
2023-07-18T01:35:00.300Z,2.60
2023-07-18T01:37:46.223Z,2.30
2023-07-18T01:40:31.521Z,2.08
2023-07-18T01:43:16.849Z,2.42
2023-07-18T01:46:05.148Z,2.20
2023-07-18T01:48:50.669Z,2.15
2023-07-18T01:51:38.069Z,2.40
2023-07-18T01:54:24.096Z,2.28
2023-07-18T01:57:11.520Z,2.10
2023-07-18T01:59:56.958Z,2.15
2023-07-18T02:02:43.175Z,2.70
2023-07-18T02:05:34.556Z,2.28
2023-07-18T02:08:20.431Z,2.13
2023-07-18T02:11:05.956Z,2.38
2023-07-18T02:13:51.829Z,2.05
2023-07-18T02:16:40.907Z,1.98
2023-07-18T02:19:26.290Z,2.28
2023-07-18T02:22:11.818Z,1.67
2023-07-18T02:24:57.788Z,1.95
2023-07-18T02:27:43.493Z,1.95
2023-07-18T02:30:29.037Z,2.10
2023-07-18T02:33:18.582Z,2.13
2023-07-18T02:36:07.465Z,2.35
2023-07-18T02:38:53.201Z,2.10
2023-07-18T02:41:41.393Z,2.25
2023-07-18T02:44:27.366Z,1.80
2023-07-18T02:47:13.844Z,2.20
2023-07-18T02:49:59.653Z,2.00
2023-07-18T02:52:45.410Z,2.03
2023-07-18T02:55:34.209Z,2.20
2023-07-18T02:58:19.862Z,2.40
2023-07-18T03:01:05.434Z,2.35
2023-07-18T03:03:51.270Z,2.45
2023-07-18T03:06:37.327Z,2.05
2023-07-18T03:09:23.145Z,2.00
2023-07-18T03:12:08.871Z,1.80
2023-07-18T03:14:56.041Z,1.80
2023-07-18T03:17:42.793Z,2.30
2023-07-18T03:20:28.438Z,2.17
2023-07-18T03:23:13.961Z,1.95
2023-07-18T03:25:59.695Z,2.40
2023-07-18T03:28:44.944Z,2.30
2023-07-18T03:31:30.576Z,2.83
2023-07-18T03:34:16.056Z,2.58
2023-07-18T03:37:03.152Z,2.30
2023-07-18T03:39:48.765Z,2.30
2023-07-18T03:42:35.306Z,2.35
2023-07-18T03:45:24.079Z,2.40
2023-07-18T03:48:09.959Z,2.45
2023-07-18T03:50:55.470Z,2.25
2023-07-18T03:53:41.209Z,2.28
2023-07-18T03:56:26.654Z,3.00
2023-07-18T03:59:11.876Z,2.95
2023-07-18T04:01:58.930Z,2.13
2023-07-18T04:04:44.801Z,2.45
2023-07-18T04:07:30.574Z,2.47
2023-07-18T04:10:15.944Z,2.80
2023-07-18T04:13:04.067Z,3.00
2023-07-18T04:15:49.333Z,2.45
2023-07-18T04:18:35.658Z,2.58
2023-07-18T04:21:21.204Z,2.92
2023-07-18T04:24:09.851Z,3.15
2023-07-18T04:26:55.386Z,3.00
2023-07-18T04:29:41.005Z,3.05
2023-07-18T04:32:26.688Z,3.22
2023-07-18T04:35:12.109Z,3.65
2023-07-18T04:38:01.118Z,3.22
2023-07-18T04:40:47.668Z,3.47
2023-07-18T04:43:32.899Z,3.40
2023-07-18T04:46:18.574Z,2.85
2023-07-18T04:49:04.474Z,3.90
2023-07-18T04:51:51.832Z,3.53
2023-07-18T04:54:38.920Z,3.30
2023-07-18T04:57:25.467Z,3.58
2023-07-18T05:00:11.760Z,3.50
2023-07-18T05:02:58.168Z,3.42
2023-07-18T05:05:46.349Z,3.08
2023-07-18T05:08:31.833Z,3.53
2023-07-18T05:11:19.299Z,3.63
2023-07-18T05:14:05.283Z,3.10
2023-07-18T05:16:52.637Z,3.58
2023-07-18T05:19:38.033Z,3.60
2023-07-18T05:22:24.390Z,2.92
2023-07-18T05:25:11.466Z,3.17
2023-07-18T05:27:59.588Z,2.90
2023-07-18T05:30:46.705Z,3.30
2023-07-18T05:33:31.839Z,3.25
2023-07-18T05:36:17.748Z,3.50
2023-07-18T05:39:04.296Z,3.60
2023-07-18T05:41:49.807Z,3.20
2023-07-18T05:44:35.436Z,4.40
2023-07-18T05:47:20.758Z,3.70
2023-07-18T05:50:07.334Z,3.22
2023-07-18T05:52:53.098Z,3.72
2023-07-18T05:55:39.679Z,4.22
2023-07-18T05:58:25.006Z,5.03
2023-07-18T06:01:13.835Z,5.32
2023-07-18T06:04:00.230Z,4.22
2023-07-18T06:06:46.108Z,6.03
2023-07-18T06:09:34.525Z,5.32
2023-07-18T06:12:23.315Z,6.38
2023-07-18T06:15:09.420Z,5.85
2023-07-18T06:17:56.935Z,6.60
2023-07-18T06:20:42.770Z,6.93
2023-07-18T06:23:31.616Z,7.35
2023-07-18T06:26:16.938Z,7.38
2023-07-18T06:29:02.424Z,6.75
2023-07-18T06:31:49.187Z,8.07
2023-07-18T06:34:42.619Z,6.57
2023-07-18T06:37:28.271Z,7.30
2023-07-18T06:40:14.355Z,7.03
2023-07-18T06:43:00.346Z,6.53
2023-07-18T06:45:46.989Z,7.63
2023-07-18T06:48:32.462Z,7.43
2023-07-18T06:51:18.366Z,7.88
2023-07-18T06:54:04.290Z,5.50
2023-07-18T06:56:49.948Z,6.65
2023-07-18T06:59:35.858Z,7.72
2023-07-18T07:02:21.621Z,7.30
2023-07-18T07:05:07.335Z,10.10
2023-07-18T07:07:54.464Z,8.48
2023-07-18T07:10:43.881Z,8.88
2023-07-18T07:13:29.673Z,7.65
2023-07-18T07:16:15.709Z,7.28
2023-07-18T07:19:01.039Z,8.63
2023-07-18T07:21:46.858Z,8.00
2023-07-18T07:24:32.505Z,10.30
2023-07-18T07:27:18.100Z,9.43
2023-07-18T07:30:03.790Z,6.80
2023-07-18T07:32:52.871Z,9.32
2023-07-18T07:35:38.454Z,7.45
2023-07-18T07:38:23.885Z,7.68
2023-07-18T07:41:09.469Z,9.05
2023-07-18T07:43:55.125Z,7.22
2023-07-18T07:46:43.366Z,7.95
2023-07-18T07:49:28.820Z,9.75
2023-07-18T07:52:14.415Z,9.48
2023-07-18T07:55:00.284Z,7.45
2023-07-18T07:57:46.687Z,8.52
2023-07-18T08:00:32.453Z,6.28
2023-07-18T08:03:18.063Z,8.07
2023-07-18T08:06:03.665Z,8.20
2023-07-18T08:08:49.398Z,8.98
2023-07-18T08:11:34.654Z,8.85
2023-07-18T08:14:20.360Z,7.43
2023-07-18T08:17:07.275Z,8.25
2023-07-18T08:19:52.689Z,6.68
2023-07-18T08:22:38.232Z,6.95
2023-07-18T08:25:24.059Z,5.13
2023-07-18T08:28:09.535Z,5.45
2023-07-18T08:30:54.988Z,6.03
2023-07-18T08:33:40.549Z,6.70
2023-07-18T08:36:27.148Z,6.72
2023-07-18T08:39:12.709Z,7.38
2023-07-18T08:41:59.461Z,6.75
2023-07-18T08:44:46.672Z,6.10
2023-07-18T08:47:32.941Z,6.35
2023-07-18T08:50:19.040Z,5.32
2023-07-18T08:53:06.383Z,4.28
2023-07-18T08:55:52.722Z,6.35
2023-07-18T08:58:39.000Z,4.93
2023-07-18T09:01:25.869Z,6.43
2023-07-18T09:04:11.610Z,6.13
2023-07-18T09:06:59.254Z,4.90
2023-07-18T09:09:48.105Z,5.90
2023-07-18T09:12:37.247Z,4.93
2023-07-18T09:15:23.624Z,4.88
2023-07-18T09:18:14.254Z,5.00
2023-07-18T09:21:09.698Z,6.22
2023-07-18T09:23:55.091Z,6.22
2023-07-18T09:26:43.494Z,5.65
2023-07-18T09:29:29.573Z,4.85
2023-07-18T09:32:22.638Z,4.43
2023-07-18T09:35:11.415Z,4.82
2023-07-18T09:37:57.375Z,4.55
2023-07-18T09:40:45.442Z,3.97
2023-07-18T09:43:31.546Z,5.60
2023-07-18T09:46:18.486Z,3.65
2023-07-18T09:49:04.718Z,4.55
2023-07-18T09:52:04.685Z,4.63
2023-07-18T09:54:53.777Z,3.53
2023-07-18T09:57:42.101Z,4.13
2023-07-18T10:00:28.180Z,3.15
2023-07-18T10:03:14.302Z,4.22
2023-07-18T10:06:03.228Z,3.40
2023-07-18T10:08:49.488Z,2.95
2023-07-18T10:12:01.398Z,3.08
2023-07-18T10:14:52.239Z,2.65
2023-07-18T10:17:40.498Z,2.42
2023-07-18T10:20:37.031Z,2.28
2023-07-18T10:23:40.991Z,2.50
2023-07-18T10:26:33.476Z,2.30
2023-07-18T10:29:22.445Z,2.25
2023-07-18T10:32:34.149Z,3.38
2023-07-18T10:38:38.698Z,2.67
2023-07-18T10:41:24.044Z,2.00
2023-07-18T10:44:16.502Z,1.60
2023-07-18T10:47:02.549Z,1.65
2023-07-18T10:49:48.826Z,1.77
2023-07-18T10:52:36.302Z,1.90
2023-07-18T10:55:22.774Z,2.67
2023-07-18T10:58:18.179Z,2.63
2023-07-18T11:03:49.620Z,2.08
2023-07-18T11:06:36.038Z,2.55
2023-07-18T11:09:22.601Z,2.60
2023-07-18T11:12:18.010Z,2.15
2023-07-18T11:17:50.703Z,2.40
2023-07-18T11:20:37.191Z,2.50
2023-07-18T11:23:22.960Z,1.65
2023-07-18T11:26:13.718Z,2.03
2023-07-18T11:29:01.142Z,2.58
2023-07-18T11:31:46.614Z,1.70
2023-07-18T11:34:32.462Z,1.90
2023-07-18T11:37:20.559Z,1.80
2023-07-18T11:40:07.249Z,1.50
2023-07-18T11:42:56.466Z,1.40
2023-07-18T11:45:42.408Z,1.35
2023-07-18T11:48:30.737Z,1.45
2023-07-18T11:51:16.025Z,2.08
2023-07-18T11:54:02.906Z,2.15
2023-07-18T11:56:48.204Z,1.30
2023-07-18T11:59:34.089Z,1.35
2023-07-18T12:02:24.093Z,1.30
2023-07-18T12:05:12.855Z,0.98
2023-07-18T12:07:58.604Z,1.55
2023-07-18T12:10:53.072Z,1.17
2023-07-18T12:13:45.538Z,1.20
2023-07-18T12:16:32.529Z,0.95
2023-07-18T12:19:21.831Z,1.10
2023-07-18T12:22:07.403Z,1.50
2023-07-18T12:24:53.170Z,0.90
2023-07-18T12:27:39.942Z,1.73
2023-07-18T12:30:25.795Z,1.20
2023-07-18T12:33:11.621Z,1.23
2023-07-18T12:35:58.334Z,0.90
2023-07-18T12:38:44.032Z,0.73
2023-07-18T12:41:29.728Z,1.30
2023-07-18T12:44:19.643Z,1.23
2023-07-18T12:47:06.017Z,0.95
2023-07-18T12:52:40.810Z,0.80
2023-07-18T12:55:27.517Z,1.00
2023-07-18T12:58:14.454Z,0.85
2023-07-18T13:01:00.068Z,1.17
2023-07-18T13:03:45.754Z,1.48
2023-07-18T13:06:32.534Z,1.30
2023-07-18T13:09:18.407Z,1.25
2023-07-18T13:12:06.758Z,0.90
2023-07-18T13:14:55.487Z,1.52
2023-07-18T13:17:41.650Z,1.48
2023-07-18T13:20:27.949Z,1.60
2023-07-18T13:23:13.466Z,1.30
2023-07-18T13:25:59.384Z,1.40
2023-07-18T13:28:44.876Z,1.10
2023-07-18T13:31:31.326Z,1.52
2023-07-18T13:34:19.107Z,1.15
2023-07-18T13:37:04.794Z,1.25
2023-07-18T13:39:50.601Z,1.15
2023-07-18T13:42:36.195Z,1.30
2023-07-18T13:45:22.225Z,1.10
2023-07-18T13:48:09.819Z,1.00
2023-07-18T13:50:55.188Z,0.90
2023-07-18T13:53:42.645Z,0.80
2023-07-18T13:56:28.363Z,1.10
2023-07-18T13:59:13.984Z,0.90
2023-07-18T14:01:59.345Z,1.40
2023-07-18T14:04:46.305Z,0.80
2023-07-18T14:07:31.943Z,0.90
2023-07-18T14:10:17.448Z,0.65
2023-07-18T14:13:08.548Z,0.90
2023-07-18T14:15:53.820Z,0.80
2023-07-18T14:18:39.712Z,1.20
2023-07-18T14:21:26.339Z,1.20
2023-07-18T14:24:11.831Z,1.00
2023-07-18T14:26:57.130Z,1.00
2023-07-18T14:29:42.660Z,1.25
2023-07-18T14:32:28.472Z,0.85
2023-07-18T14:35:14.766Z,1.35
2023-07-18T14:38:00.346Z,1.00
2023-07-18T14:40:49.177Z,1.00
2023-07-18T14:43:35.285Z,1.00
2023-07-18T14:46:22.714Z,1.00
2023-07-18T14:49:08.575Z,0.90
2023-07-18T14:51:54.357Z,1.10
2023-07-18T14:54:40.202Z,1.02
2023-07-18T14:57:26.924Z,0.80
2023-07-18T15:00:13.700Z,0.90
2023-07-18T15:02:59.207Z,0.80
2023-07-18T15:05:44.903Z,0.80
2023-07-18T15:08:30.446Z,1.20
2023-07-18T15:11:15.789Z,1.05
2023-07-18T15:14:01.570Z,1.00
2023-07-18T15:16:46.992Z,1.02
2023-07-18T15:19:32.692Z,1.33
2023-07-18T15:22:21.025Z,1.02
2023-07-18T15:25:07.816Z,1.40
2023-07-18T15:27:53.303Z,0.98
2023-07-18T15:30:39.008Z,0.70
2023-07-18T15:33:27.144Z,0.80
2023-07-18T15:36:13.511Z,1.17
2023-07-18T15:38:58.869Z,0.93
2023-07-18T15:41:44.386Z,0.77
2023-07-18T15:44:29.992Z,0.80
2023-07-18T15:47:15.542Z,0.82
2023-07-18T15:50:01.522Z,0.90
2023-07-18T15:52:47.159Z,1.02
2023-07-18T15:55:32.760Z,0.90
2023-07-18T15:58:18.460Z,0.70
2023-07-18T16:01:05.240Z,1.02
2023-07-18T16:03:51.910Z,0.80
2023-07-18T16:06:38.703Z,0.95
2023-07-18T16:09:29.060Z,1.40
2023-07-18T16:12:14.385Z,0.93
2023-07-18T16:15:00.273Z,0.88
2023-07-18T16:17:45.924Z,0.70
2023-07-18T16:20:33.150Z,1.17
2023-07-18T16:23:21.885Z,1.02
2023-07-18T16:26:08.875Z,0.82
2023-07-18T16:28:54.516Z,0.70
2023-07-18T16:31:40.342Z,0.68
2023-07-18T16:34:26.080Z,1.02
2023-07-18T16:37:12.312Z,0.70
2023-07-18T16:39:58.188Z,1.10
2023-07-18T16:42:43.966Z,0.80
2023-07-18T16:45:29.691Z,1.00
2023-07-18T16:48:19.377Z,0.70
2023-07-18T16:51:04.664Z,0.50
2023-07-18T16:53:50.582Z,0.60
2023-07-18T16:56:36.865Z,0.40
2023-07-18T16:59:22.444Z,0.70
2023-07-18T17:02:08.233Z,0.80
2023-07-18T17:04:53.613Z,0.50
2023-07-18T17:07:39.007Z,0.70
2023-07-18T17:10:27.073Z,0.60
2023-07-18T17:13:12.825Z,0.50
2023-07-18T17:16:01.052Z,0.90
2023-07-18T17:18:46.966Z,0.60
2023-07-18T17:21:32.209Z,0.73
2023-07-18T17:24:18.306Z,0.63
2023-07-18T17:27:06.806Z,0.60
2023-07-18T17:29:52.568Z,0.90
2023-07-18T17:32:38.126Z,0.77
2023-07-18T17:35:24.660Z,0.73
2023-07-18T17:38:10.195Z,0.68
2023-07-18T17:40:55.448Z,0.70
2023-07-18T17:43:41.561Z,0.60
2023-07-18T17:46:27.344Z,0.82
2023-07-18T17:49:15.606Z,0.70
2023-07-18T17:52:00.948Z,0.75
2023-07-18T17:54:46.590Z,0.65
2023-07-18T17:57:32.456Z,0.80
2023-07-18T18:00:18.204Z,0.98
2023-07-18T18:03:05.144Z,0.80
2023-07-18T18:05:52.637Z,0.75
2023-07-18T18:08:38.076Z,1.13
2023-07-18T18:11:23.469Z,0.70
2023-07-18T18:14:08.986Z,0.77
2023-07-18T18:16:54.907Z,0.90
2023-07-18T18:19:40.297Z,0.60
2023-07-18T18:22:25.799Z,0.90
2023-07-18T18:25:11.378Z,0.70
2023-07-18T18:27:56.775Z,1.00
2023-07-18T18:30:42.233Z,0.63
2023-07-18T18:33:27.678Z,1.20
2023-07-18T18:36:14.107Z,0.93
2023-07-18T18:39:02.985Z,0.80
2023-07-18T18:41:48.274Z,0.75
2023-07-18T18:44:34.042Z,1.00
2023-07-18T18:47:19.404Z,0.93
2023-07-18T18:50:06.666Z,0.75
2023-07-18T18:52:52.016Z,0.98
2023-07-18T18:55:37.725Z,0.73
2023-07-18T18:58:25.639Z,0.73
2023-07-18T19:01:10.978Z,0.50
2023-07-18T19:03:57.000Z,0.40
2023-07-18T19:06:43.020Z,0.63
2023-07-18T19:09:30.613Z,0.40
2023-07-18T19:12:16.256Z,0.50
2023-07-18T19:15:01.852Z,0.60
2023-07-18T19:17:47.396Z,0.43
2023-07-18T19:20:33.070Z,0.60
2023-07-18T19:23:18.396Z,0.57
2023-07-18T19:26:04.185Z,0.50
2023-07-18T19:28:49.718Z,0.50
2023-07-18T19:31:35.533Z,0.40
2023-07-18T19:34:20.869Z,0.40
2023-07-18T19:37:06.613Z,0.43
2023-07-18T19:39:52.246Z,0.40
2023-07-18T19:42:37.699Z,0.40
2023-07-18T19:45:23.675Z,0.40
2023-07-18T19:48:12.052Z,0.30
2023-07-18T19:50:57.685Z,0.20
2023-07-18T19:53:46.067Z,0.30
2023-07-18T19:56:33.104Z,0.30
2023-07-18T19:59:18.916Z,0.40
2023-07-18T20:02:04.570Z,0.50
2023-07-18T20:04:49.903Z,0.40
2023-07-18T20:07:35.383Z,0.40
2023-07-18T20:10:21.427Z,0.50
2023-07-18T20:13:06.784Z,0.57
2023-07-18T20:15:54.692Z,0.60
2023-07-18T20:18:40.238Z,0.50
2023-07-18T20:21:25.492Z,0.50
2023-07-18T20:24:11.197Z,0.40
2023-07-18T20:26:56.803Z,0.52
2023-07-18T20:29:44.488Z,0.50
2023-07-18T20:32:30.017Z,0.40
2023-07-18T20:35:15.731Z,0.40
2023-07-18T20:38:01.792Z,0.30
2023-07-18T20:40:47.500Z,0.40
2023-07-18T20:43:33.334Z,0.30
2023-07-18T20:46:19.335Z,0.32
2023-07-18T20:49:04.960Z,0.30
2023-07-18T20:51:50.409Z,0.32
2023-07-18T20:54:37.469Z,0.40
2023-07-18T20:57:22.954Z,0.40
2023-07-18T21:00:09.273Z,0.30
2023-07-18T21:02:59.484Z,0.30
2023-07-18T21:05:52.074Z,0.30
2023-07-18T21:08:38.744Z,0.30
2023-07-18T21:11:24.038Z,0.30
2023-07-18T21:14:09.693Z,0.38
2023-07-18T21:16:55.185Z,0.32
2023-07-18T21:19:40.667Z,0.38
2023-07-18T21:22:26.328Z,0.45
2023-07-18T21:25:12.254Z,0.30
2023-07-18T21:27:59.292Z,0.35
2023-07-18T21:30:44.685Z,0.30
2023-07-18T21:33:30.777Z,0.30
2023-07-18T21:36:16.296Z,0.32
2023-07-18T21:39:02.401Z,0.60
2023-07-18T21:41:48.056Z,0.30
2023-07-18T21:44:33.791Z,0.60
2023-07-18T21:47:19.645Z,0.70
2023-07-18T21:50:05.434Z,0.70
2023-07-18T21:52:50.931Z,0.77
2023-07-18T21:55:37.282Z,0.88
2023-07-18T21:58:22.684Z,0.80
2023-07-18T22:01:08.043Z,0.80
2023-07-18T22:03:53.618Z,1.00
2023-07-18T22:06:39.044Z,0.80
2023-07-18T22:09:24.708Z,0.95
2023-07-18T22:12:10.206Z,1.10
2023-07-18T22:14:57.079Z,1.20
2023-07-18T22:17:42.882Z,1.30
2023-07-18T22:20:32.508Z,1.23
2023-07-18T22:23:18.242Z,1.38
2023-07-18T22:26:14.015Z,1.50
2023-07-18T22:29:00.378Z,1.20
2023-07-18T22:31:45.834Z,1.27
2023-07-18T22:34:32.150Z,1.10
2023-07-18T22:37:18.100Z,1.20
2023-07-18T22:40:03.900Z,0.90
2023-07-18T22:42:52.795Z,0.88
2023-07-18T22:45:38.146Z,0.90
2023-07-18T22:48:23.838Z,0.90
2023-07-18T22:51:09.730Z,0.73
2023-07-18T22:53:55.206Z,0.80
2023-07-18T22:56:40.496Z,0.80
2023-07-18T22:59:26.062Z,0.90
2023-07-18T23:02:11.270Z,0.80
2023-07-18T23:04:56.980Z,0.98
2023-07-18T23:07:42.785Z,1.00
2023-07-18T23:10:28.288Z,1.20
2023-07-18T23:13:16.252Z,1.17
2023-07-18T23:16:02.146Z,1.63
2023-07-18T23:18:47.719Z,1.33
2023-07-18T23:21:35.548Z,1.40
2023-07-18T23:24:21.501Z,1.20
2023-07-18T23:27:07.212Z,1.30
2023-07-18T23:29:52.788Z,1.40
2023-07-18T23:32:39.594Z,1.50
2023-07-18T23:35:28.749Z,1.55
2023-07-18T23:38:14.494Z,1.80
2023-07-18T23:41:00.265Z,2.00
2023-07-18T23:43:48.558Z,2.13
2023-07-18T23:46:34.518Z,2.03
2023-07-18T23:49:19.884Z,1.90
2023-07-18T23:52:05.891Z,2.20
2023-07-18T23:54:51.841Z,1.60
2023-07-18T23:57:37.449Z,1.70
